sensor_id;sensor_type;location;lat;lon;timestamp;P1;durP1;ratioP1;P2;durP2;ratioP2
43435;SDS011;36399;51.444;-2.018;2023-05-16T00:01:00;5.13;;;1.00;;
43435;SDS011;36399;51.444;-2.018;2023-05-16T00:03:26;3.37;;;1.23;;
43435;SDS011;36399;51.444;-2.018;2023-05-16T00:05:52;3.67;;;1.40;;
43435;SDS011;36399;51.444;-2.018;2023-05-16T00:08:18;4.17;;;1.20;;
43435;SDS011;36399;51.444;-2.018;2023-05-16T00:10:44;3.60;;;1.17;;
43435;SDS011;36399;51.444;-2.018;2023-05-16T00:13:10;4.17;;;1.30;;
43435;SDS011;36399;51.444;-2.018;2023-05-16T00:15:36;2.90;;;0.90;;
43435;SDS011;36399;51.444;-2.018;2023-05-16T00:18:03;2.17;;;1.13;;
43435;SDS011;36399;51.444;-2.018;2023-05-16T00:20:29;3.87;;;1.07;;
43435;SDS011;36399;51.444;-2.018;2023-05-16T00:22:55;2.73;;;1.30;;
43435;SDS011;36399;51.444;-2.018;2023-05-16T00:25:21;3.23;;;1.37;;
43435;SDS011;36399;51.444;-2.018;2023-05-16T00:27:47;3.73;;;1.33;;
43435;SDS011;36399;51.444;-2.018;2023-05-16T00:30:13;3.77;;;1.07;;
43435;SDS011;36399;51.444;-2.018;2023-05-16T00:32:39;6.03;;;2.97;;
43435;SDS011;36399;51.444;-2.018;2023-05-16T00:35:05;7.73;;;2.23;;
43435;SDS011;36399;51.444;-2.018;2023-05-16T00:37:31;3.60;;;1.33;;
43435;SDS011;36399;51.444;-2.018;2023-05-16T00:39:57;2.07;;;1.17;;
43435;SDS011;36399;51.444;-2.018;2023-05-16T00:42:23;5.73;;;1.33;;
43435;SDS011;36399;51.444;-2.018;2023-05-16T00:44:49;6.50;;;1.50;;
43435;SDS011;36399;51.444;-2.018;2023-05-16T00:47:15;3.50;;;1.63;;
43435;SDS011;36399;51.444;-2.018;2023-05-16T00:49:41;4.27;;;1.63;;
43435;SDS011;36399;51.444;-2.018;2023-05-16T00:52:07;3.40;;;1.20;;
43435;SDS011;36399;51.444;-2.018;2023-05-16T00:54:33;5.03;;;1.73;;
43435;SDS011;36399;51.444;-2.018;2023-05-16T00:56:59;3.83;;;1.63;;
43435;SDS011;36399;51.444;-2.018;2023-05-16T00:59:25;4.73;;;1.77;;
43435;SDS011;36399;51.444;-2.018;2023-05-16T01:01:52;6.87;;;1.57;;
43435;SDS011;36399;51.444;-2.018;2023-05-16T01:04:18;4.70;;;2.23;;
43435;SDS011;36399;51.444;-2.018;2023-05-16T01:06:44;4.17;;;1.37;;
43435;SDS011;36399;51.444;-2.018;2023-05-16T01:09:10;4.90;;;1.63;;
43435;SDS011;36399;51.444;-2.018;2023-05-16T01:14:21;4.70;;;1.20;;
43435;SDS011;36399;51.444;-2.018;2023-05-16T01:16:53;7.47;;;1.80;;
43435;SDS011;36399;51.444;-2.018;2023-05-16T01:28:14;10.50;;;1.80;;
43435;SDS011;36399;51.444;-2.018;2023-05-16T01:30:42;8.83;;;2.40;;
43435;SDS011;36399;51.444;-2.018;2023-05-16T01:33:09;6.33;;;1.23;;
43435;SDS011;36399;51.444;-2.018;2023-05-16T01:36:18;8.63;;;1.70;;
43435;SDS011;36399;51.444;-2.018;2023-05-16T01:38:34;3.78;;;2.15;;
43435;SDS011;36399;51.444;-2.018;2023-05-16T01:41:05;3.60;;;1.50;;
43435;SDS011;36399;51.444;-2.018;2023-05-16T01:43:41;6.87;;;2.50;;
43435;SDS011;36399;51.444;-2.018;2023-05-16T01:46:10;2.80;;;1.53;;
43435;SDS011;36399;51.444;-2.018;2023-05-16T01:48:43;6.30;;;2.03;;
43435;SDS011;36399;51.444;-2.018;2023-05-16T01:51:19;6.00;;;1.77;;
43435;SDS011;36399;51.444;-2.018;2023-05-16T01:53:47;7.97;;;1.73;;
43435;SDS011;36399;51.444;-2.018;2023-05-16T01:56:15;6.03;;;1.50;;
43435;SDS011;36399;51.444;-2.018;2023-05-16T01:58:41;4.63;;;1.33;;
43435;SDS011;36399;51.444;-2.018;2023-05-16T02:01:08;6.10;;;1.90;;
43435;SDS011;36399;51.444;-2.018;2023-05-16T02:03:34;3.23;;;1.80;;
43435;SDS011;36399;51.444;-2.018;2023-05-16T02:06:00;7.57;;;2.47;;
43435;SDS011;36399;51.444;-2.018;2023-05-16T02:08:29;5.67;;;1.70;;
43435;SDS011;36399;51.444;-2.018;2023-05-16T02:10:55;4.50;;;1.57;;
43435;SDS011;36399;51.444;-2.018;2023-05-16T02:13:21;5.13;;;1.60;;
43435;SDS011;36399;51.444;-2.018;2023-05-16T02:15:47;3.23;;;1.67;;
43435;SDS011;36399;51.444;-2.018;2023-05-16T02:18:13;5.63;;;1.47;;
43435;SDS011;36399;51.444;-2.018;2023-05-16T02:20:39;3.13;;;1.20;;
43435;SDS011;36399;51.444;-2.018;2023-05-16T02:23:05;7.57;;;1.70;;
43435;SDS011;36399;51.444;-2.018;2023-05-16T02:25:31;7.07;;;1.50;;
43435;SDS011;36399;51.444;-2.018;2023-05-16T02:27:57;3.57;;;1.33;;
43435;SDS011;36399;51.444;-2.018;2023-05-16T02:30:23;4.83;;;2.03;;
43435;SDS011;36399;51.444;-2.018;2023-05-16T02:32:49;5.47;;;1.67;;
43435;SDS011;36399;51.444;-2.018;2023-05-16T02:35:15;7.50;;;2.33;;
43435;SDS011;36399;51.444;-2.018;2023-05-16T02:37:41;6.97;;;2.13;;
43435;SDS011;36399;51.444;-2.018;2023-05-16T02:40:07;8.60;;;2.17;;
43435;SDS011;36399;51.444;-2.018;2023-05-16T02:42:33;7.27;;;1.70;;
43435;SDS011;36399;51.444;-2.018;2023-05-16T02:44:59;4.10;;;1.60;;
43435;SDS011;36399;51.444;-2.018;2023-05-16T02:47:25;3.97;;;1.50;;
43435;SDS011;36399;51.444;-2.018;2023-05-16T02:49:51;6.13;;;1.50;;
43435;SDS011;36399;51.444;-2.018;2023-05-16T02:52:18;5.80;;;1.80;;
43435;SDS011;36399;51.444;-2.018;2023-05-16T02:54:44;6.77;;;1.70;;
43435;SDS011;36399;51.444;-2.018;2023-05-16T02:57:10;2.47;;;1.60;;
43435;SDS011;36399;51.444;-2.018;2023-05-16T02:59:37;5.13;;;1.60;;
43435;SDS011;36399;51.444;-2.018;2023-05-16T03:02:03;6.53;;;1.53;;
43435;SDS011;36399;51.444;-2.018;2023-05-16T03:04:29;6.20;;;1.53;;
43435;SDS011;36399;51.444;-2.018;2023-05-16T03:06:55;3.00;;;1.27;;
43435;SDS011;36399;51.444;-2.018;2023-05-16T03:09:21;4.70;;;1.60;;
43435;SDS011;36399;51.444;-2.018;2023-05-16T03:11:47;5.03;;;1.63;;
43435;SDS011;36399;51.444;-2.018;2023-05-16T03:14:13;5.83;;;1.90;;
43435;SDS011;36399;51.444;-2.018;2023-05-16T03:16:39;6.37;;;1.50;;
43435;SDS011;36399;51.444;-2.018;2023-05-16T03:19:08;8.60;;;1.93;;
43435;SDS011;36399;51.444;-2.018;2023-05-16T03:21:35;3.50;;;1.57;;
43435;SDS011;36399;51.444;-2.018;2023-05-16T03:24:01;4.17;;;1.30;;
43435;SDS011;36399;51.444;-2.018;2023-05-16T03:26:28;6.90;;;1.80;;
43435;SDS011;36399;51.444;-2.018;2023-05-16T03:28:54;7.83;;;2.43;;
43435;SDS011;36399;51.444;-2.018;2023-05-16T03:31:20;6.23;;;2.30;;
43435;SDS011;36399;51.444;-2.018;2023-05-16T03:33:46;7.83;;;1.90;;
43435;SDS011;36399;51.444;-2.018;2023-05-16T03:36:12;3.57;;;1.70;;
43435;SDS011;36399;51.444;-2.018;2023-05-16T03:38:39;6.43;;;2.00;;
43435;SDS011;36399;51.444;-2.018;2023-05-16T03:41:05;7.67;;;1.90;;
43435;SDS011;36399;51.444;-2.018;2023-05-16T03:43:31;5.93;;;1.73;;
43435;SDS011;36399;51.444;-2.018;2023-05-16T03:45:57;4.63;;;1.93;;
43435;SDS011;36399;51.444;-2.018;2023-05-16T03:48:23;5.50;;;1.83;;
43435;SDS011;36399;51.444;-2.018;2023-05-16T03:50:50;3.63;;;1.57;;
43435;SDS011;36399;51.444;-2.018;2023-05-16T03:53:16;4.40;;;1.90;;
43435;SDS011;36399;51.444;-2.018;2023-05-16T03:55:42;5.73;;;1.93;;
43435;SDS011;36399;51.444;-2.018;2023-05-16T03:58:08;2.63;;;1.73;;
43435;SDS011;36399;51.444;-2.018;2023-05-16T04:00:34;5.70;;;1.93;;
43435;SDS011;36399;51.444;-2.018;2023-05-16T04:03:01;6.73;;;2.20;;
43435;SDS011;36399;51.444;-2.018;2023-05-16T04:05:27;4.17;;;1.60;;
43435;SDS011;36399;51.444;-2.018;2023-05-16T04:07:53;4.63;;;1.53;;
43435;SDS011;36399;51.444;-2.018;2023-05-16T04:10:19;4.10;;;1.77;;
43435;SDS011;36399;51.444;-2.018;2023-05-16T04:12:45;6.03;;;1.90;;
43435;SDS011;36399;51.444;-2.018;2023-05-16T04:15:11;4.30;;;1.77;;
43435;SDS011;36399;51.444;-2.018;2023-05-16T04:17:37;9.70;;;1.90;;
43435;SDS011;36399;51.444;-2.018;2023-05-16T04:20:04;6.87;;;1.83;;
43435;SDS011;36399;51.444;-2.018;2023-05-16T04:22:31;5.40;;;2.03;;
43435;SDS011;36399;51.444;-2.018;2023-05-16T04:24:57;3.63;;;1.77;;
43435;SDS011;36399;51.444;-2.018;2023-05-16T04:27:23;7.87;;;2.33;;
43435;SDS011;36399;51.444;-2.018;2023-05-16T04:29:49;6.37;;;2.33;;
43435;SDS011;36399;51.444;-2.018;2023-05-16T04:32:15;6.23;;;2.13;;
43435;SDS011;36399;51.444;-2.018;2023-05-16T04:34:41;9.93;;;2.13;;
43435;SDS011;36399;51.444;-2.018;2023-05-16T04:37:09;4.73;;;1.90;;
43435;SDS011;36399;51.444;-2.018;2023-05-16T04:39:36;4.90;;;2.10;;
43435;SDS011;36399;51.444;-2.018;2023-05-16T04:42:02;6.43;;;2.30;;
43435;SDS011;36399;51.444;-2.018;2023-05-16T04:44:28;6.00;;;1.60;;
43435;SDS011;36399;51.444;-2.018;2023-05-16T04:46:56;7.87;;;1.97;;
43435;SDS011;36399;51.444;-2.018;2023-05-16T04:49:22;4.20;;;2.10;;
43435;SDS011;36399;51.444;-2.018;2023-05-16T04:51:48;6.97;;;2.00;;
43435;SDS011;36399;51.444;-2.018;2023-05-16T04:54:13;5.90;;;1.83;;
43435;SDS011;36399;51.444;-2.018;2023-05-16T04:56:40;7.43;;;2.23;;
43435;SDS011;36399;51.444;-2.018;2023-05-16T04:59:06;6.50;;;2.30;;
43435;SDS011;36399;51.444;-2.018;2023-05-16T05:01:32;4.23;;;2.37;;
43435;SDS011;36399;51.444;-2.018;2023-05-16T05:03:58;5.70;;;2.17;;
43435;SDS011;36399;51.444;-2.018;2023-05-16T05:06:23;7.70;;;2.03;;
43435;SDS011;36399;51.444;-2.018;2023-05-16T05:08:50;5.67;;;2.23;;
43435;SDS011;36399;51.444;-2.018;2023-05-16T05:11:16;5.37;;;2.23;;
43435;SDS011;36399;51.444;-2.018;2023-05-16T05:13:42;5.00;;;1.97;;
43435;SDS011;36399;51.444;-2.018;2023-05-16T05:16:07;4.70;;;2.67;;
43435;SDS011;36399;51.444;-2.018;2023-05-16T05:18:34;4.27;;;2.07;;
43435;SDS011;36399;51.444;-2.018;2023-05-16T05:21:00;4.87;;;1.77;;
43435;SDS011;36399;51.444;-2.018;2023-05-16T05:23:26;8.00;;;2.43;;
43435;SDS011;36399;51.444;-2.018;2023-05-16T05:25:52;10.43;;;3.13;;
43435;SDS011;36399;51.444;-2.018;2023-05-16T05:28:18;6.93;;;2.90;;
43435;SDS011;36399;51.444;-2.018;2023-05-16T05:30:44;5.10;;;2.30;;
43435;SDS011;36399;51.444;-2.018;2023-05-16T05:33:13;11.33;;;3.00;;
43435;SDS011;36399;51.444;-2.018;2023-05-16T05:35:43;4.87;;;2.67;;
43435;SDS011;36399;51.444;-2.018;2023-05-16T05:38:09;6.17;;;2.60;;
43435;SDS011;36399;51.444;-2.018;2023-05-16T05:40:35;5.77;;;3.00;;
43435;SDS011;36399;51.444;-2.018;2023-05-16T05:43:01;5.47;;;2.50;;
43435;SDS011;36399;51.444;-2.018;2023-05-16T05:45:27;6.40;;;2.93;;
43435;SDS011;36399;51.444;-2.018;2023-05-16T05:47:53;6.83;;;2.30;;
43435;SDS011;36399;51.444;-2.018;2023-05-16T05:50:18;8.17;;;3.20;;
43435;SDS011;36399;51.444;-2.018;2023-05-16T05:52:45;5.67;;;2.23;;
43435;SDS011;36399;51.444;-2.018;2023-05-16T05:55:11;5.40;;;2.43;;
43435;SDS011;36399;51.444;-2.018;2023-05-16T05:57:37;6.77;;;2.50;;
43435;SDS011;36399;51.444;-2.018;2023-05-16T06:00:03;4.87;;;2.23;;
43435;SDS011;36399;51.444;-2.018;2023-05-16T06:02:29;5.67;;;2.23;;
43435;SDS011;36399;51.444;-2.018;2023-05-16T06:04:55;5.20;;;2.07;;
43435;SDS011;36399;51.444;-2.018;2023-05-16T06:07:21;6.30;;;1.97;;
43435;SDS011;36399;51.444;-2.018;2023-05-16T06:09:47;4.90;;;1.87;;
43435;SDS011;36399;51.444;-2.018;2023-05-16T06:12:14;4.07;;;1.17;;
43435;SDS011;36399;51.444;-2.018;2023-05-16T06:14:40;5.23;;;1.40;;
43435;SDS011;36399;51.444;-2.018;2023-05-16T06:17:05;2.80;;;1.20;;
43435;SDS011;36399;51.444;-2.018;2023-05-16T06:19:31;5.77;;;1.87;;
43435;SDS011;36399;51.444;-2.018;2023-05-16T06:21:57;2.87;;;1.07;;
43435;SDS011;36399;51.444;-2.018;2023-05-16T06:24:23;4.83;;;1.03;;
43435;SDS011;36399;51.444;-2.018;2023-05-16T06:26:49;2.53;;;1.17;;
43435;SDS011;36399;51.444;-2.018;2023-05-16T06:29:15;4.73;;;1.20;;
43435;SDS011;36399;51.444;-2.018;2023-05-16T06:31:44;5.13;;;1.27;;
43435;SDS011;36399;51.444;-2.018;2023-05-16T06:34:11;3.07;;;1.10;;
43435;SDS011;36399;51.444;-2.018;2023-05-16T06:36:37;4.33;;;0.80;;
43435;SDS011;36399;51.444;-2.018;2023-05-16T06:39:03;2.73;;;0.70;;
43435;SDS011;36399;51.444;-2.018;2023-05-16T06:41:29;2.90;;;0.90;;
43435;SDS011;36399;51.444;-2.018;2023-05-16T06:43:55;2.57;;;0.97;;
43435;SDS011;36399;51.444;-2.018;2023-05-16T06:46:21;2.77;;;0.80;;
43435;SDS011;36399;51.444;-2.018;2023-05-16T06:48:47;7.30;;;1.47;;
43435;SDS011;36399;51.444;-2.018;2023-05-16T06:51:13;4.70;;;1.13;;
43435;SDS011;36399;51.444;-2.018;2023-05-16T06:53:40;3.20;;;1.00;;
43435;SDS011;36399;51.444;-2.018;2023-05-16T06:56:06;4.33;;;1.03;;
43435;SDS011;36399;51.444;-2.018;2023-05-16T06:58:32;1.60;;;0.73;;
43435;SDS011;36399;51.444;-2.018;2023-05-16T07:00:59;4.67;;;0.97;;
43435;SDS011;36399;51.444;-2.018;2023-05-16T07:03:25;3.07;;;1.23;;
43435;SDS011;36399;51.444;-2.018;2023-05-16T07:05:51;5.27;;;1.10;;
43435;SDS011;36399;51.444;-2.018;2023-05-16T07:08:17;4.40;;;0.90;;
43435;SDS011;36399;51.444;-2.018;2023-05-16T07:10:43;5.50;;;1.13;;
43435;SDS011;36399;51.444;-2.018;2023-05-16T07:13:09;3.23;;;0.87;;
43435;SDS011;36399;51.444;-2.018;2023-05-16T07:15:35;2.37;;;0.77;;
43435;SDS011;36399;51.444;-2.018;2023-05-16T07:18:01;6.47;;;0.97;;
43435;SDS011;36399;51.444;-2.018;2023-05-16T07:20:27;1.93;;;0.60;;
43435;SDS011;36399;51.444;-2.018;2023-05-16T07:22:53;1.77;;;1.00;;
43435;SDS011;36399;51.444;-2.018;2023-05-16T07:25:22;4.77;;;1.30;;
43435;SDS011;36399;51.444;-2.018;2023-05-16T07:27:49;3.20;;;0.93;;
43435;SDS011;36399;51.444;-2.018;2023-05-16T07:30:15;2.77;;;1.43;;
43435;SDS011;36399;51.444;-2.018;2023-05-16T07:32:40;4.13;;;0.97;;
43435;SDS011;36399;51.444;-2.018;2023-05-16T07:35:07;4.73;;;1.83;;
43435;SDS011;36399;51.444;-2.018;2023-05-16T07:37:37;6.97;;;1.47;;
43435;SDS011;36399;51.444;-2.018;2023-05-16T07:40:06;2.83;;;1.20;;
43435;SDS011;36399;51.444;-2.018;2023-05-16T07:42:32;1.53;;;0.60;;
43435;SDS011;36399;51.444;-2.018;2023-05-16T07:44:58;3.77;;;0.80;;
43435;SDS011;36399;51.444;-2.018;2023-05-16T07:47:24;4.10;;;0.80;;
43435;SDS011;36399;51.444;-2.018;2023-05-16T07:49:50;2.07;;;0.60;;
43435;SDS011;36399;51.444;-2.018;2023-05-16T07:52:16;4.43;;;0.90;;
43435;SDS011;36399;51.444;-2.018;2023-05-16T07:54:44;1.77;;;0.70;;
43435;SDS011;36399;51.444;-2.018;2023-05-16T07:57:12;1.83;;;0.60;;
43435;SDS011;36399;51.444;-2.018;2023-05-16T07:59:42;4.30;;;1.17;;
43435;SDS011;36399;51.444;-2.018;2023-05-16T08:02:09;4.73;;;0.90;;
43435;SDS011;36399;51.444;-2.018;2023-05-16T08:04:36;5.13;;;0.87;;
43435;SDS011;36399;51.444;-2.018;2023-05-16T08:07:02;6.83;;;1.00;;
43435;SDS011;36399;51.444;-2.018;2023-05-16T08:09:28;4.53;;;0.73;;
43435;SDS011;36399;51.444;-2.018;2023-05-16T08:11:54;2.03;;;0.70;;
43435;SDS011;36399;51.444;-2.018;2023-05-16T08:14:21;2.57;;;0.60;;
43435;SDS011;36399;51.444;-2.018;2023-05-16T08:16:46;3.93;;;0.90;;
43435;SDS011;36399;51.444;-2.018;2023-05-16T08:19:12;3.30;;;0.83;;
43435;SDS011;36399;51.444;-2.018;2023-05-16T08:21:38;2.03;;;0.77;;
43435;SDS011;36399;51.444;-2.018;2023-05-16T08:24:05;6.57;;;1.30;;
43435;SDS011;36399;51.444;-2.018;2023-05-16T08:26:31;2.73;;;0.77;;
43435;SDS011;36399;51.444;-2.018;2023-05-16T08:28:57;1.57;;;0.70;;
43435;SDS011;36399;51.444;-2.018;2023-05-16T08:31:23;2.97;;;1.53;;
43435;SDS011;36399;51.444;-2.018;2023-05-16T08:33:49;2.50;;;0.93;;
43435;SDS011;36399;51.444;-2.018;2023-05-16T08:36:15;3.43;;;0.97;;
43435;SDS011;36399;51.444;-2.018;2023-05-16T08:38:44;3.83;;;1.10;;
43435;SDS011;36399;51.444;-2.018;2023-05-16T08:41:11;5.57;;;1.77;;
43435;SDS011;36399;51.444;-2.018;2023-05-16T08:43:37;4.93;;;1.20;;
43435;SDS011;36399;51.444;-2.018;2023-05-16T08:46:05;6.13;;;1.10;;
43435;SDS011;36399;51.444;-2.018;2023-05-16T08:48:32;3.97;;;1.20;;
43435;SDS011;36399;51.444;-2.018;2023-05-16T08:51:01;4.47;;;1.10;;
43435;SDS011;36399;51.444;-2.018;2023-05-16T08:53:31;2.97;;;1.20;;
43435;SDS011;36399;51.444;-2.018;2023-05-16T08:56:05;3.77;;;1.10;;
43435;SDS011;36399;51.444;-2.018;2023-05-16T08:58:33;2.80;;;1.10;;
43435;SDS011;36399;51.444;-2.018;2023-05-16T09:01:00;6.37;;;1.70;;
43435;SDS011;36399;51.444;-2.018;2023-05-16T09:03:28;4.43;;;1.87;;
43435;SDS011;36399;51.444;-2.018;2023-05-16T09:05:55;4.47;;;1.00;;
43435;SDS011;36399;51.444;-2.018;2023-05-16T09:08:22;4.77;;;1.40;;
43435;SDS011;36399;51.444;-2.018;2023-05-16T09:10:48;4.83;;;1.70;;
43435;SDS011;36399;51.444;-2.018;2023-05-16T09:13:14;6.93;;;1.20;;
43435;SDS011;36399;51.444;-2.018;2023-05-16T09:15:40;2.97;;;1.00;;
43435;SDS011;36399;51.444;-2.018;2023-05-16T09:18:10;3.97;;;1.90;;
43435;SDS011;36399;51.444;-2.018;2023-05-16T09:20:37;4.00;;;1.30;;
43435;SDS011;36399;51.444;-2.018;2023-05-16T09:23:11;6.43;;;1.33;;
43435;SDS011;36399;51.444;-2.018;2023-05-16T09:25:38;2.73;;;1.40;;
43435;SDS011;36399;51.444;-2.018;2023-05-16T09:28:04;5.17;;;1.93;;
43435;SDS011;36399;51.444;-2.018;2023-05-16T09:30:35;2.87;;;1.17;;
43435;SDS011;36399;51.444;-2.018;2023-05-16T09:33:05;4.43;;;1.23;;
43435;SDS011;36399;51.444;-2.018;2023-05-16T09:35:31;5.33;;;1.40;;
43435;SDS011;36399;51.444;-2.018;2023-05-16T09:37:57;2.67;;;1.30;;
43435;SDS011;36399;51.444;-2.018;2023-05-16T09:40:24;3.77;;;1.87;;
43435;SDS011;36399;51.444;-2.018;2023-05-16T09:43:03;3.70;;;1.17;;
43435;SDS011;36399;51.444;-2.018;2023-05-16T09:45:30;5.87;;;1.57;;
43435;SDS011;36399;51.444;-2.018;2023-05-16T09:48:04;4.47;;;1.40;;
43435;SDS011;36399;51.444;-2.018;2023-05-16T09:50:32;6.53;;;1.30;;
43435;SDS011;36399;51.444;-2.018;2023-05-16T09:52:59;4.93;;;1.50;;
43435;SDS011;36399;51.444;-2.018;2023-05-16T09:55:25;3.47;;;1.30;;
43435;SDS011;36399;51.444;-2.018;2023-05-16T09:57:51;4.23;;;1.30;;
43435;SDS011;36399;51.444;-2.018;2023-05-16T10:00:17;5.07;;;1.73;;
43435;SDS011;36399;51.444;-2.018;2023-05-16T10:02:44;2.27;;;1.07;;
43435;SDS011;36399;51.444;-2.018;2023-05-16T10:05:10;5.93;;;1.20;;
43435;SDS011;36399;51.444;-2.018;2023-05-16T10:07:36;2.67;;;1.10;;
43435;SDS011;36399;51.444;-2.018;2023-05-16T10:10:07;3.87;;;1.20;;
43435;SDS011;36399;51.444;-2.018;2023-05-16T10:12:34;3.83;;;1.30;;
43435;SDS011;36399;51.444;-2.018;2023-05-16T10:15:02;6.80;;;1.43;;
43435;SDS011;36399;51.444;-2.018;2023-05-16T10:17:31;3.07;;;1.00;;
43435;SDS011;36399;51.444;-2.018;2023-05-16T10:20:06;4.07;;;1.17;;
43435;SDS011;36399;51.444;-2.018;2023-05-16T10:22:34;5.03;;;1.00;;
43435;SDS011;36399;51.444;-2.018;2023-05-16T10:28:03;4.22;;;1.52;;
43435;SDS011;36399;51.444;-2.018;2023-05-16T10:30:32;7.00;;;1.77;;
43435;SDS011;36399;51.444;-2.018;2023-05-16T10:32:59;3.40;;;1.47;;
43435;SDS011;36399;51.444;-2.018;2023-05-16T10:35:26;3.93;;;1.20;;
43435;SDS011;36399;51.444;-2.018;2023-05-16T10:37:52;5.23;;;1.40;;
43435;SDS011;36399;51.444;-2.018;2023-05-16T10:40:18;3.83;;;1.27;;
43435;SDS011;36399;51.444;-2.018;2023-05-16T10:43:02;3.92;;;1.75;;
43435;SDS011;36399;51.444;-2.018;2023-05-16T10:45:30;3.00;;;1.55;;
43435;SDS011;36399;51.444;-2.018;2023-05-16T10:53:12;3.28;;;1.00;;
43435;SDS011;36399;51.444;-2.018;2023-05-16T10:55:44;3.85;;;1.27;;
43435;SDS011;36399;51.444;-2.018;2023-05-16T10:58:17;3.25;;;1.38;;
43435;SDS011;36399;51.444;-2.018;2023-05-16T11:00:48;6.35;;;1.42;;
43435;SDS011;36399;51.444;-2.018;2023-05-16T11:03:21;4.15;;;1.38;;
43435;SDS011;36399;51.444;-2.018;2023-05-16T11:05:52;4.22;;;1.48;;
43435;SDS011;36399;51.444;-2.018;2023-05-16T11:08:24;5.63;;;1.73;;
43435;SDS011;36399;51.444;-2.018;2023-05-16T11:10:50;8.38;;;1.90;;
43435;SDS011;36399;51.444;-2.018;2023-05-16T11:14:01;4.87;;;1.43;;
43435;SDS011;36399;51.444;-2.018;2023-05-16T11:16:28;4.43;;;1.53;;
43435;SDS011;36399;51.444;-2.018;2023-05-16T11:18:54;2.88;;;1.45;;
43435;SDS011;36399;51.444;-2.018;2023-05-16T11:24:33;5.70;;;2.00;;
43435;SDS011;36399;51.444;-2.018;2023-05-16T11:27:00;4.38;;;1.73;;
43435;SDS011;36399;51.444;-2.018;2023-05-16T11:29:30;4.65;;;1.63;;
43435;SDS011;36399;51.444;-2.018;2023-05-16T11:31:58;5.38;;;2.17;;
43435;SDS011;36399;51.444;-2.018;2023-05-16T11:34:25;4.53;;;1.67;;
43435;SDS011;36399;51.444;-2.018;2023-05-16T11:36:51;5.25;;;1.95;;
43435;SDS011;36399;51.444;-2.018;2023-05-16T11:39:17;8.68;;;1.92;;
43435;SDS011;36399;51.444;-2.018;2023-05-16T11:41:46;3.47;;;1.65;;
43435;SDS011;36399;51.444;-2.018;2023-05-16T11:44:12;4.63;;;1.65;;
43435;SDS011;36399;51.444;-2.018;2023-05-16T11:46:38;4.18;;;1.95;;
43435;SDS011;36399;51.444;-2.018;2023-05-16T11:49:10;3.13;;;1.75;;
43435;SDS011;36399;51.444;-2.018;2023-05-16T11:51:37;4.57;;;2.73;;
43435;SDS011;36399;51.444;-2.018;2023-05-16T11:54:03;6.57;;;1.92;;
43435;SDS011;36399;51.444;-2.018;2023-05-16T11:56:30;4.80;;;1.65;;
43435;SDS011;36399;51.444;-2.018;2023-05-16T11:58:59;5.25;;;1.80;;
43435;SDS011;36399;51.444;-2.018;2023-05-16T12:01:32;5.60;;;1.98;;
43435;SDS011;36399;51.444;-2.018;2023-05-16T12:04:00;4.85;;;2.08;;
43435;SDS011;36399;51.444;-2.018;2023-05-16T12:06:26;5.43;;;1.90;;
43435;SDS011;36399;51.444;-2.018;2023-05-16T12:08:53;6.05;;;2.17;;
43435;SDS011;36399;51.444;-2.018;2023-05-16T12:11:21;5.68;;;2.53;;
43435;SDS011;36399;51.444;-2.018;2023-05-16T12:13:48;4.82;;;1.80;;
43435;SDS011;36399;51.444;-2.018;2023-05-16T12:16:14;5.80;;;1.92;;
43435;SDS011;36399;51.444;-2.018;2023-05-16T12:18:41;5.75;;;1.75;;
43435;SDS011;36399;51.444;-2.018;2023-05-16T12:21:07;4.68;;;2.30;;
43435;SDS011;36399;51.444;-2.018;2023-05-16T12:23:33;4.45;;;1.85;;
43435;SDS011;36399;51.444;-2.018;2023-05-16T12:25:59;4.53;;;1.85;;
43435;SDS011;36399;51.444;-2.018;2023-05-16T12:28:31;4.25;;;2.05;;
43435;SDS011;36399;51.444;-2.018;2023-05-16T12:31:10;4.75;;;1.88;;
43435;SDS011;36399;51.444;-2.018;2023-05-16T12:33:43;6.85;;;2.20;;
43435;SDS011;36399;51.444;-2.018;2023-05-16T12:36:13;4.53;;;2.10;;
43435;SDS011;36399;51.444;-2.018;2023-05-16T12:38:40;6.07;;;2.22;;
43435;SDS011;36399;51.444;-2.018;2023-05-16T12:41:06;3.10;;;1.60;;
43435;SDS011;36399;51.444;-2.018;2023-05-16T12:43:32;7.20;;;2.25;;
43435;SDS011;36399;51.444;-2.018;2023-05-16T12:45:58;4.03;;;1.90;;
43435;SDS011;36399;51.444;-2.018;2023-05-16T12:48:31;4.95;;;2.47;;
43435;SDS011;36399;51.444;-2.018;2023-05-16T12:51:11;6.75;;;2.15;;
43435;SDS011;36399;51.444;-2.018;2023-05-16T12:53:42;7.38;;;2.58;;
43435;SDS011;36399;51.444;-2.018;2023-05-16T12:56:10;5.72;;;2.63;;
43435;SDS011;36399;51.444;-2.018;2023-05-16T12:58:37;4.28;;;2.08;;
43435;SDS011;36399;51.444;-2.018;2023-05-16T13:01:03;5.18;;;2.22;;
43435;SDS011;36399;51.444;-2.018;2023-05-16T13:03:30;4.63;;;1.90;;
43435;SDS011;36399;51.444;-2.018;2023-05-16T13:05:57;6.05;;;2.85;;
43435;SDS011;36399;51.444;-2.018;2023-05-16T13:08:24;6.25;;;2.17;;
43435;SDS011;36399;51.444;-2.018;2023-05-16T13:10:51;5.25;;;1.90;;
43435;SDS011;36399;51.444;-2.018;2023-05-16T13:13:17;4.32;;;2.00;;
43435;SDS011;36399;51.444;-2.018;2023-05-16T13:15:46;9.40;;;2.42;;
43435;SDS011;36399;51.444;-2.018;2023-05-16T13:18:12;3.90;;;2.13;;
43435;SDS011;36399;51.444;-2.018;2023-05-16T13:20:39;5.18;;;2.13;;
43435;SDS011;36399;51.444;-2.018;2023-05-16T13:23:06;5.32;;;2.33;;
43435;SDS011;36399;51.444;-2.018;2023-05-16T13:25:32;4.40;;;2.08;;
43435;SDS011;36399;51.444;-2.018;2023-05-16T13:27:58;6.13;;;2.17;;
43435;SDS011;36399;51.444;-2.018;2023-05-16T13:30:24;6.65;;;2.58;;
43435;SDS011;36399;51.444;-2.018;2023-05-16T13:32:50;5.32;;;2.20;;
43435;SDS011;36399;51.444;-2.018;2023-05-16T13:35:17;5.45;;;2.58;;
43435;SDS011;36399;51.444;-2.018;2023-05-16T13:37:43;7.07;;;2.75;;
43435;SDS011;36399;51.444;-2.018;2023-05-16T13:40:09;4.85;;;2.40;;
43435;SDS011;36399;51.444;-2.018;2023-05-16T13:42:36;6.50;;;2.40;;
43435;SDS011;36399;51.444;-2.018;2023-05-16T13:45:04;5.65;;;2.28;;
43435;SDS011;36399;51.444;-2.018;2023-05-16T13:47:31;6.88;;;2.90;;
43435;SDS011;36399;51.444;-2.018;2023-05-16T13:49:57;7.18;;;3.03;;
43435;SDS011;36399;51.444;-2.018;2023-05-16T13:52:27;5.65;;;2.83;;
43435;SDS011;36399;51.444;-2.018;2023-05-16T13:54:53;5.85;;;2.25;;
43435;SDS011;36399;51.444;-2.018;2023-05-16T13:57:19;5.72;;;2.35;;
43435;SDS011;36399;51.444;-2.018;2023-05-16T13:59:47;5.00;;;2.80;;
43435;SDS011;36399;51.444;-2.018;2023-05-16T14:02:13;6.60;;;2.10;;
43435;SDS011;36399;51.444;-2.018;2023-05-16T14:04:39;8.18;;;2.58;;
43435;SDS011;36399;51.444;-2.018;2023-05-16T14:07:05;8.07;;;2.97;;
43435;SDS011;36399;51.444;-2.018;2023-05-16T14:09:31;6.30;;;2.90;;
43435;SDS011;36399;51.444;-2.018;2023-05-16T14:11:59;6.72;;;2.72;;
43435;SDS011;36399;51.444;-2.018;2023-05-16T14:14:27;6.32;;;2.90;;
43435;SDS011;36399;51.444;-2.018;2023-05-16T14:16:53;4.30;;;2.00;;
43435;SDS011;36399;51.444;-2.018;2023-05-16T14:19:19;5.88;;;2.70;;
43435;SDS011;36399;51.444;-2.018;2023-05-16T14:21:45;4.57;;;2.20;;
43435;SDS011;36399;51.444;-2.018;2023-05-16T14:24:11;6.18;;;2.55;;
43435;SDS011;36399;51.444;-2.018;2023-05-16T14:26:37;6.95;;;2.95;;
43435;SDS011;36399;51.444;-2.018;2023-05-16T14:29:03;6.30;;;2.50;;
43435;SDS011;36399;51.444;-2.018;2023-05-16T14:31:29;5.60;;;2.47;;
43435;SDS011;36399;51.444;-2.018;2023-05-16T14:33:55;5.75;;;2.83;;
43435;SDS011;36399;51.444;-2.018;2023-05-16T14:36:21;9.13;;;3.28;;
43435;SDS011;36399;51.444;-2.018;2023-05-16T14:38:46;5.43;;;2.42;;
43435;SDS011;36399;51.444;-2.018;2023-05-16T14:41:13;6.35;;;2.42;;
43435;SDS011;36399;51.444;-2.018;2023-05-16T14:43:39;5.72;;;2.75;;
43435;SDS011;36399;51.444;-2.018;2023-05-16T14:46:05;7.07;;;2.67;;
43435;SDS011;36399;51.444;-2.018;2023-05-16T14:48:31;7.10;;;3.28;;
43435;SDS011;36399;51.444;-2.018;2023-05-16T14:50:58;8.70;;;3.08;;
43435;SDS011;36399;51.444;-2.018;2023-05-16T14:53:24;4.60;;;2.95;;
43435;SDS011;36399;51.444;-2.018;2023-05-16T14:55:51;6.38;;;2.85;;